Golden Iris — 3FZK4 — position and weather

sailwx.info

Track history (hours):
 
Tides and Currents Weather Stations Pressure Air Temp Water Temp Dewpoint Dewpoint Depression Visibility Wind Speed Wind Dir Waves Ship Positions

Golden Iris

Last reported at 2016-Jul-23 18:25 UTC. Time now 2016-Jul-24 01:06 UTC.
Position N 34°03' E 033°56'.

Length 163 m; draft 6 m.

Type: Passenger vessel. MMSI: 371771000.

Date/timePositionNaut miles runAvg speedWind from/ knotsBaromVisibWave heightAir tempDewpointWater temp
2016-Jul-23 18:25N 34°03' E 033°56'1113.2
2016-Jul-23 17:33N 34°15' E 033°53'1312.9
2016-Jul-23 16:32N 34°27' E 033°49'16 1.2
2016-Jul-23 03:07N 34°43' E 033°46'25 8.4
2016-Jul-23 00:09N 34°18' E 033°49'5 8.1
2016-Jul-22 23:33N 34°14' E 033°52'10 8.6
2016-Jul-22 22:22N 34°04' E 033°55'86 7.9
2016-Jul-22 11:32N 32°54' E 034°54'8 7.8
2016-Jul-22 10:33N 32°50' E 035°01'1 0.9
2016-Jul-22 09:31N 32°49' E 035°00'0 0.0
2016-Jul-22 08:31N 32°49' E 035°00'0 0.0
2016-Jul-22 07:31N 32°49' E 035°00'0 0.1
2016-Jul-22 04:33N 32°49' E 035°00'9 8.7
2016-Jul-22 03:33N 32°53' E 034°51'  
2016-Jul-18 02:06N 34°44' E 031°29'1212.6
2016-Jul-18 01:11N 34°38' E 031°40'812.7
2016-Jul-18 00:33N 34°33' E 031°48'1312.6
2016-Jul-17 23:33N 34°26' E 032°01'1312.8
2016-Jul-17 22:33N 34°19' E 032°14'1412.6
2016-Jul-17 21:26N 34°11' E 032°28'1112.2
2016-Jul-17 20:33N 34°06' E 032°39'1211.8
2016-Jul-17 19:33N 33°60' E 032°51'1212.1
2016-Jul-17 18:33N 33°53' E 033°04'1212.2
2016-Jul-17 17:33N 33°47' E 033°16'1312.5
2016-Jul-17 16:33N 33°40' E 033°29'1312.6
2016-Jul-17 15:33N 33°33' E 033°42'1512.7
2016-Jul-17 14:25N 33°25' E 033°57'2712.7
2016-Jul-17 12:19N 33°11' E 034°23'1013.4
2016-Jul-17 11:32N 33°06' E 034°34'1313.5
2016-Jul-17 10:33N 32°59' E 034°48'1313.2
2016-Jul-17 09:33N 32°51' E 035°00'2 1.9
2016-Jul-17 08:32N 32°49' E 035°00'0 0.0
2016-Jul-17 07:29N 32°49' E 035°00'0 0.0
2016-Jul-17 06:32N 32°49' E 035°00'0 0.0
2016-Jul-17 04:32N 32°49' E 035°00'0 0.0
2016-Jul-17 03:32N 32°49' E 035°00'1 1.5
2016-Jul-17 02:33N 32°50' E 035°01'1010.0
2016-Jul-17 01:34N 32°55' E 034°51'1111.4
2016-Jul-17 00:33N 32°60' E 034°38'10 7.3
2016-Jul-16 23:13N 33°01' E 034°27'811.5
2016-Jul-16 22:33N 33°08' E 034°23'1111.1
2016-Jul-16 21:34N 33°18' E 034°17'1111.2
2016-Jul-16 20:33N 33°28' E 034°12'1111.0
2016-Jul-16 19:33N 33°39' E 034°07'1111.0
2016-Jul-16 18:33N 33°49' E 034°01'1110.9
2016-Jul-16 17:33N 33°59' E 033°58'1111.0
2016-Jul-16 16:33N 34°10' E 033°55'1111.2
2016-Jul-16 15:34N 34°21' E 033°51'1111.1
2016-Jul-16 14:33N 34°32' E 033°48'1111.4
2016-Jul-16 13:33N 34°43' E 033°45'1111.3
2016-Jul-16 12:33N 34°53' E 033°42'3 3.3
2016-Jul-16 11:32N 34°56' E 033°39'0 0.0
2016-Jul-16 10:32N 34°56' E 033°39'0 0.0
2016-Jul-16 09:32N 34°56' E 033°39'0 0.0
2016-Jul-16 08:32N 34°56' E 033°39'0 0.0
2016-Jul-16 07:32N 34°56' E 033°39'0 0.0
2016-Jul-16 06:32N 34°56' E 033°39'0 0.0
2016-Jul-16 04:29N 34°56' E 033°39'0 0.0
2016-Jul-16 02:08N 34°56' E 033°39'0 0.0
2016-Jul-16 01:26N 34°56' E 033°39'0 0.0
2016-Jul-16 00:14N 34°56' E 033°39'0 0.0
2016-Jul-15 23:32N 34°56' E 033°39'0 0.0
2016-Jul-15 22:32N 34°56' E 033°39'0 0.0
2016-Jul-15 21:32N 34°56' E 033°39'0 0.0
2016-Jul-15 20:32N 34°56' E 033°39'0 0.0
2016-Jul-15 19:32N 34°56' E 033°39'0 0.0
2016-Jul-15 18:32N 34°56' E 033°39'0 0.0
2016-Jul-15 17:32N 34°56' E 033°39'0 0.0
2016-Jul-15 16:32N 34°56' E 033°39'0 0.0
2016-Jul-15 15:32N 34°56' E 033°39'0 0.0
2016-Jul-15 14:32N 34°56' E 033°39'0 0.0
2016-Jul-15 13:32N 34°56' E 033°39'0 0.0
2016-Jul-15 12:32N 34°56' E 033°39'0 0.0
2016-Jul-15 11:32N 34°56' E 033°39'0 0.0
2016-Jul-15 10:32N 34°56' E 033°39'0 0.0
2016-Jul-15 09:32N 34°56' E 033°39'13 5.9
2016-Jul-15 07:17N 34°44' E 033°47'17 8.9
2016-Jul-15 05:22N 34°27' E 033°46'9 9.8
2016-Jul-15 04:27N 34°18' E 033°47'8 9.4
2016-Jul-15 03:33N 34°10' E 033°48'9 8.6
2016-Jul-15 02:33N 34°02' E 033°49'9 8.7
2016-Jul-15 01:33N 33°53' E 033°51'7 7.4
2016-Jul-15 00:33N 33°47' E 033°56'12 8.1
2016-Jul-14 23:06N 33°41' E 034°08'5 8.5
2016-Jul-14 22:32N 33°37' E 034°11'9 8.5
2016-Jul-14 21:32N 33°29' E 034°16'8 8.4
2016-Jul-14 20:33N 33°23' E 034°22'8 8.0
2016-Jul-14 19:33N 33°16' E 034°27'8 8.2
2016-Jul-14 18:32N 33°09' E 034°33'8 8.1
2016-Jul-14 17:32N 33°02' E 034°38'10 7.8
2016-Jul-14 16:16N 32°56' E 034°47'5 7.6
2016-Jul-14 15:33N 32°54' E 034°53'8 7.9
2016-Jul-14 14:34N 32°50' E 035°01'1 1.3
2016-Jul-14 13:31N 32°49' E 035°00'0 0.0
2016-Jul-14 12:28N 32°49' E 035°00'0 0.0
2016-Jul-14 11:31N 32°49' E 035°00'0 0.0
2016-Jul-14 10:31N 32°49' E 035°00'0 0.0
2016-Jul-14 09:31N 32°49' E 035°00'0 0.0
2016-Jul-14 08:31N 32°49' E 035°00'0 0.0
2016-Jul-14 07:31N 32°49' E 035°00'0 0.0
2016-Jul-14 06:28N 32°49' E 035°00'0 0.0
2016-Jul-14 05:31N 32°49' E 035°00'1 1.0
2016-Jul-14 04:33N 32°50' E 035°01'1010.0
2016-Jul-14 03:33N 32°54' E 034°50'1713.7
2016-Jul-14 02:19N 32°59' E 034°31'1013.3
2016-Jul-14 01:34N 33°01' E 034°19'1313.2
2016-Jul-14 00:34N 33°05' E 034°04'1313.1
2016-Jul-13 23:34N 33°10' E 033°50'1313.0
2016-Jul-13 22:34N 33°17' E 033°37'1413.2
2016-Jul-13 21:31N 33°24' E 033°23'1313.5
2016-Jul-13 20:34N 33°32' E 033°10'1413.5
2016-Jul-13 19:30N 33°40' E 032°56'1414.0
2016-Jul-13 18:31N 33°48' E 032°43'  
Track history (hours):
 
Tides and Currents Weather Stations Pressure Air Temp Water Temp Dewpoint Dewpoint Depression Visibility Wind Speed Wind Dir Waves Ship Positions

Golden Iris

Last reported at 2016-Jul-23 18:25 UTC. Time now 2016-Jul-24 01:06 UTC.
Position N 34°03' E 033°56'.

Length 163 m; draft 6 m.

Type: Passenger vessel. MMSI: 371771000.

Date/timePositionNaut miles runAvg speedWind from/ knotsBaromVisibWave heightAir tempDewpointWater temp
2016-Jul-23 18:25N 34°03' E 033°56'1113.2
2016-Jul-23 17:33N 34°15' E 033°53'1312.9
2016-Jul-23 16:32N 34°27' E 033°49'16 1.2
2016-Jul-23 03:07N 34°43' E 033°46'25 8.4
2016-Jul-23 00:09N 34°18' E 033°49'5 8.1
2016-Jul-22 23:33N 34°14' E 033°52'10 8.6
2016-Jul-22 22:22N 34°04' E 033°55'86 7.9
2016-Jul-22 11:32N 32°54' E 034°54'8 7.8
2016-Jul-22 10:33N 32°50' E 035°01'1 0.9
2016-Jul-22 09:31N 32°49' E 035°00'0 0.0
2016-Jul-22 08:31N 32°49' E 035°00'0 0.0
2016-Jul-22 07:31N 32°49' E 035°00'0 0.1
2016-Jul-22 04:33N 32°49' E 035°00'9 8.7
2016-Jul-22 03:33N 32°53' E 034°51'  
2016-Jul-18 02:06N 34°44' E 031°29'1212.6
2016-Jul-18 01:11N 34°38' E 031°40'812.7
2016-Jul-18 00:33N 34°33' E 031°48'1312.6
2016-Jul-17 23:33N 34°26' E 032°01'1312.8
2016-Jul-17 22:33N 34°19' E 032°14'1412.6
2016-Jul-17 21:26N 34°11' E 032°28'1112.2
2016-Jul-17 20:33N 34°06' E 032°39'1211.8
2016-Jul-17 19:33N 33°60' E 032°51'1212.1
2016-Jul-17 18:33N 33°53' E 033°04'1212.2
2016-Jul-17 17:33N 33°47' E 033°16'1312.5
2016-Jul-17 16:33N 33°40' E 033°29'1312.6
2016-Jul-17 15:33N 33°33' E 033°42'1512.7
2016-Jul-17 14:25N 33°25' E 033°57'2712.7
2016-Jul-17 12:19N 33°11' E 034°23'1013.4
2016-Jul-17 11:32N 33°06' E 034°34'1313.5
2016-Jul-17 10:33N 32°59' E 034°48'1313.2
2016-Jul-17 09:33N 32°51' E 035°00'2 1.9
2016-Jul-17 08:32N 32°49' E 035°00'0 0.0
2016-Jul-17 07:29N 32°49' E 035°00'0 0.0
2016-Jul-17 06:32N 32°49' E 035°00'0 0.0
2016-Jul-17 04:32N 32°49' E 035°00'0 0.0
2016-Jul-17 03:32N 32°49' E 035°00'1 1.5
2016-Jul-17 02:33N 32°50' E 035°01'1010.0
2016-Jul-17 01:34N 32°55' E 034°51'1111.4
2016-Jul-17 00:33N 32°60' E 034°38'10 7.3
2016-Jul-16 23:13N 33°01' E 034°27'811.5
2016-Jul-16 22:33N 33°08' E 034°23'1111.1
2016-Jul-16 21:34N 33°18' E 034°17'1111.2
2016-Jul-16 20:33N 33°28' E 034°12'1111.0
2016-Jul-16 19:33N 33°39' E 034°07'1111.0
2016-Jul-16 18:33N 33°49' E 034°01'1110.9
2016-Jul-16 17:33N 33°59' E 033°58'1111.0
2016-Jul-16 16:33N 34°10' E 033°55'1111.2
2016-Jul-16 15:34N 34°21' E 033°51'1111.1
2016-Jul-16 14:33N 34°32' E 033°48'1111.4
2016-Jul-16 13:33N 34°43' E 033°45'1111.3
2016-Jul-16 12:33N 34°53' E 033°42'3 3.3
2016-Jul-16 11:32N 34°56' E 033°39'0 0.0
2016-Jul-16 10:32N 34°56' E 033°39'0 0.0
2016-Jul-16 09:32N 34°56' E 033°39'0 0.0
2016-Jul-16 08:32N 34°56' E 033°39'0 0.0
2016-Jul-16 07:32N 34°56' E 033°39'0 0.0
2016-Jul-16 06:32N 34°56' E 033°39'0 0.0
2016-Jul-16 04:29N 34°56' E 033°39'0 0.0
2016-Jul-16 02:08N 34°56' E 033°39'0 0.0
2016-Jul-16 01:26N 34°56' E 033°39'0 0.0
2016-Jul-16 00:14N 34°56' E 033°39'0 0.0
2016-Jul-15 23:32N 34°56' E 033°39'0 0.0
2016-Jul-15 22:32N 34°56' E 033°39'0 0.0
2016-Jul-15 21:32N 34°56' E 033°39'0 0.0
2016-Jul-15 20:32N 34°56' E 033°39'0 0.0
2016-Jul-15 19:32N 34°56' E 033°39'0 0.0
2016-Jul-15 18:32N 34°56' E 033°39'0 0.0
2016-Jul-15 17:32N 34°56' E 033°39'0 0.0
2016-Jul-15 16:32N 34°56' E 033°39'0 0.0
2016-Jul-15 15:32N 34°56' E 033°39'0 0.0
2016-Jul-15 14:32N 34°56' E 033°39'0 0.0
2016-Jul-15 13:32N 34°56' E 033°39'0 0.0
2016-Jul-15 12:32N 34°56' E 033°39'0 0.0
2016-Jul-15 11:32N 34°56' E 033°39'0 0.0
2016-Jul-15 10:32N 34°56' E 033°39'0 0.0
2016-Jul-15 09:32N 34°56' E 033°39'13 5.9
2016-Jul-15 07:17N 34°44' E 033°47'17 8.9
2016-Jul-15 05:22N 34°27' E 033°46'9 9.8
2016-Jul-15 04:27N 34°18' E 033°47'8 9.4
2016-Jul-15 03:33N 34°10' E 033°48'9 8.6
2016-Jul-15 02:33N 34°02' E 033°49'9 8.7
2016-Jul-15 01:33N 33°53' E 033°51'7 7.4
2016-Jul-15 00:33N 33°47' E 033°56'12 8.1
2016-Jul-14 23:06N 33°41' E 034°08'5 8.5
2016-Jul-14 22:32N 33°37' E 034°11'9 8.5
2016-Jul-14 21:32N 33°29' E 034°16'8 8.4
2016-Jul-14 20:33N 33°23' E 034°22'8 8.0
2016-Jul-14 19:33N 33°16' E 034°27'8 8.2
2016-Jul-14 18:32N 33°09' E 034°33'8 8.1
2016-Jul-14 17:32N 33°02' E 034°38'10 7.8
2016-Jul-14 16:16N 32°56' E 034°47'5 7.6
2016-Jul-14 15:33N 32°54' E 034°53'8 7.9
2016-Jul-14 14:34N 32°50' E 035°01'1 1.3
2016-Jul-14 13:31N 32°49' E 035°00'0 0.0
2016-Jul-14 12:28N 32°49' E 035°00'0 0.0
2016-Jul-14 11:31N 32°49' E 035°00'0 0.0
2016-Jul-14 10:31N 32°49' E 035°00'0 0.0
2016-Jul-14 09:31N 32°49' E 035°00'0 0.0
2016-Jul-14 08:31N 32°49' E 035°00'0 0.0
2016-Jul-14 07:31N 32°49' E 035°00'0 0.0
2016-Jul-14 06:28N 32°49' E 035°00'0 0.0
2016-Jul-14 05:31N 32°49' E 035°00'1 1.0
2016-Jul-14 04:33N 32°50' E 035°01'1010.0
2016-Jul-14 03:33N 32°54' E 034°50'1713.7
2016-Jul-14 02:19N 32°59' E 034°31'1013.3
2016-Jul-14 01:34N 33°01' E 034°19'1313.2
2016-Jul-14 00:34N 33°05' E 034°04'1313.1
2016-Jul-13 23:34N 33°10' E 033°50'1313.0
2016-Jul-13 22:34N 33°17' E 033°37'1413.2
2016-Jul-13 21:31N 33°24' E 033°23'1313.5
2016-Jul-13 20:34N 33°32' E 033°10'1413.5
2016-Jul-13 19:30N 33°40' E 032°56'1414.0
2016-Jul-13 18:31N 33°48' E 032°43'  

Dump ship's entire track history